createdAt,value
2019-06-10T00:02:31.412Z,99993.05
2019-06-10T00:06:38.225Z,99985.80
2019-06-10T00:10:45.431Z,99984.45
2019-06-10T00:14:52.188Z,99972.87
2019-06-10T00:19:02.812Z,99972.60
2019-06-10T00:23:08.358Z,99959.91
2019-06-10T00:27:15.384Z,99969.80
2019-06-10T00:31:22.177Z,99970.87
2019-06-10T00:35:31.475Z,99963.46
2019-06-10T00:39:37.904Z,99963.46
2019-06-10T00:43:44.752Z,99951.48
2019-06-10T00:48:04.463Z,99950.78
2019-06-10T00:52:01.629Z,99951.64
2019-06-10T00:56:21.455Z,99943.42
2019-06-10T01:00:27.778Z,99937.64
2019-06-10T01:04:34.486Z,99946.32
2019-06-10T01:08:41.222Z,99954.33
2019-06-10T01:12:47.983Z,99958.66
2019-06-10T01:16:54.732Z,99950.56
2019-06-10T01:21:02.072Z,99949.99
2019-06-10T01:25:12.386Z,99933.83
2019-06-10T01:29:20.827Z,99942.80
2019-06-10T01:33:26.939Z,99952.02
2019-06-10T01:37:34.772Z,99951.97
2019-06-10T01:41:41.485Z,99943.55
2019-06-10T01:45:48.261Z,99934.25
2019-06-10T01:49:55.125Z,99936.62
2019-06-10T01:54:01.924Z,99926.20
2019-06-10T01:58:15.013Z,99927.01
2019-06-10T02:02:24.239Z,99923.52
2019-06-10T02:06:31.667Z,99913.77
2019-06-10T02:10:38.692Z,99916.93
2019-06-10T02:14:45.485Z,99909.73
2019-06-10T02:19:00.045Z,99908.48
2019-06-10T02:23:02.005Z,99895.70
2019-06-10T02:27:08.870Z,99887.20
2019-06-10T02:31:19.928Z,99886.03
2019-06-10T02:35:37.914Z,99901.54
2019-06-10T02:39:38.697Z,99896.67
2019-06-10T02:43:44.068Z,99915.66
2019-06-10T02:47:53.371Z,99915.19
2019-06-10T02:52:03.400Z,99911.80
2019-06-10T02:56:12.706Z,99906.39
2019-06-10T03:00:26.737Z,99902.14
2019-06-10T03:04:32.567Z,99913.13
2019-06-10T03:08:37.041Z,99919.13
2019-06-10T03:12:44.083Z,99924.30
2019-06-10T03:16:55.119Z,99924.61
2019-06-10T03:21:02.554Z,99913.89
2019-06-10T03:25:13.172Z,99916.02
2019-06-10T03:29:20.563Z,99908.73
2019-06-10T03:33:39.403Z,99901.23
2019-06-10T03:37:37.689Z,99896.67
2019-06-10T03:41:44.540Z,99896.16
2019-06-10T03:45:53.157Z,99884.02
2019-06-10T03:50:03.041Z,99886.67
2019-06-10T03:54:08.570Z,99874.72
2019-06-10T03:58:15.411Z,99867.48
2019-06-10T04:02:23.851Z,99867.34
2019-06-10T04:06:33.659Z,99862.06
2019-06-10T04:10:39.251Z,99854.39
2019-06-10T04:14:46.033Z,99852.27
2019-06-10T04:18:53.427Z,99867.42
2019-06-10T04:23:02.661Z,99861.92
2019-06-10T04:27:08.876Z,99856.81
2019-06-10T04:31:15.624Z,99859.70
2019-06-10T04:35:23.375Z,99857.38
2019-06-10T04:39:33.476Z,99839.13
2019-06-10T04:43:39.358Z,99837.62
2019-06-10T04:47:46.082Z,99832.96
2019-06-10T04:51:52.842Z,99821.46
2019-06-10T04:55:59.687Z,99836.73
2019-06-10T05:00:12.053Z,99840.13
2019-06-10T05:04:17.070Z,99841.12
2019-06-10T05:08:28.147Z,99842.55
2019-06-10T05:12:35.453Z,99865.13
2019-06-10T05:16:43.165Z,99873.65
2019-06-10T05:20:57.666Z,99867.94
2019-06-10T05:24:58.528Z,99869.11
2019-06-10T05:29:05.500Z,99865.01
2019-06-10T05:33:13.430Z,99885.23
2019-06-10T05:37:21.278Z,99894.34
2019-06-10T05:41:30.340Z,99891.75
2019-06-10T05:45:37.427Z,99882.41
2019-06-10T05:49:44.137Z,99887.17
2019-06-10T05:53:52.814Z,99892.53
2019-06-10T05:57:59.471Z,99890.97
2019-06-10T06:02:06.196Z,99902.48
2019-06-10T06:06:13.074Z,99893.22
2019-06-10T06:10:22.120Z,99898.59
2019-06-10T06:14:29.575Z,99902.31
2019-06-10T06:18:36.574Z,99901.39
2019-06-10T06:22:43.371Z,99893.19
2019-06-10T06:26:50.390Z,99890.39
2019-06-10T06:30:57.257Z,99899.55
2019-06-10T06:35:04.328Z,99893.48
2019-06-10T06:39:12.822Z,99889.16
2019-06-10T06:43:22.208Z,99889.93
2019-06-10T06:47:29.784Z,99894.22
2019-06-10T06:51:49.537Z,99908.73
2019-06-10T06:55:46.052Z,99908.56
2019-06-10T06:59:52.971Z,99899.73
2019-06-10T07:04:02.442Z,99893.32
2019-06-10T07:08:08.214Z,99894.42
2019-06-10T07:12:14.963Z,99887.13
2019-06-10T07:16:22.978Z,99870.87
2019-06-10T07:20:32.675Z,99877.11
2019-06-10T07:24:41.957Z,99891.87
2019-06-10T07:28:47.710Z,99895.66
2019-06-10T07:32:55.875Z,99890.44
2019-06-10T07:37:02.940Z,99892.63
2019-06-10T07:41:12.604Z,99890.72
2019-06-10T07:45:22.013Z,99882.61
2019-06-10T07:49:28.921Z,99878.11
2019-06-10T07:53:36.945Z,99868.95
2019-06-10T07:57:45.664Z,99868.70
2019-06-10T08:01:55.276Z,99859.25
2019-06-10T08:06:03.317Z,99844.97
2019-06-10T08:10:13.335Z,99855.50
2019-06-10T08:14:22.277Z,99869.67
2019-06-10T08:18:29.350Z,99859.95
2019-06-10T08:22:42.799Z,99854.80
2019-06-10T08:26:45.708Z,99859.16
2019-06-10T08:30:53.334Z,99850.73
2019-06-10T08:35:02.752Z,99846.20
2019-06-10T08:39:15.159Z,99856.48
2019-06-10T08:43:18.766Z,99850.35
2019-06-10T08:47:25.851Z,99850.59
2019-06-10T08:51:32.717Z,99851.86
2019-06-10T08:55:39.695Z,99853.55
2019-06-10T08:59:53.321Z,99850.45
2019-06-10T09:04:03.130Z,99853.63
2019-06-10T09:08:13.038Z,99844.92
2019-06-10T09:12:32.403Z,99836.77
2019-06-10T09:16:34.507Z,99848.30
2019-06-10T09:20:44.960Z,99842.89
2019-06-10T09:24:55.327Z,99834.13
2019-06-10T09:29:02.884Z,99846.31
2019-06-10T09:33:13.007Z,99842.52
2019-06-10T09:37:19.865Z,99840.19
2019-06-10T09:41:39.952Z,99840.34
2019-06-10T09:45:35.279Z,99847.19
2019-06-10T09:49:46.097Z,99836.22
2019-06-10T09:54:02.120Z,99827.75
2019-06-10T09:58:00.158Z,99824.02
2019-06-10T10:02:08.622Z,99810.23
2019-06-10T10:06:18.775Z,99810.16
2019-06-10T10:10:38.308Z,99811.17
2019-06-10T10:14:48.113Z,99803.63
2019-06-10T10:19:00.368Z,99729.38
2019-06-10T10:23:05.390Z,99803.39
2019-06-10T10:27:13.456Z,99781.78
2019-06-10T10:31:23.080Z,99772.67
2019-06-10T10:35:29.540Z,99772.67
2019-06-10T10:39:36.397Z,99772.14
2019-06-10T10:43:45.736Z,99757.27
2019-06-10T10:47:56.713Z,99759.28
2019-06-10T10:52:02.657Z,99748.36
2019-06-10T10:56:12.850Z,99740.27
2019-06-10T11:00:24.378Z,99742.91
2019-06-10T11:04:32.854Z,99725.03
2019-06-10T11:08:44.917Z,99722.49
2019-06-10T11:12:58.613Z,99720.25
2019-06-10T11:17:17.742Z,99726.70
2019-06-10T11:22:02.743Z,99710.33
2019-06-10T11:26:39.711Z,99714.41
2019-06-10T11:31:13.992Z,99693.20
2019-06-10T11:35:33.121Z,99701.73
2019-06-10T11:39:56.697Z,99695.56
2019-06-10T11:44:12.158Z,99685.62
2019-06-10T11:48:19.042Z,99695.27
2019-06-10T11:52:43.392Z,99682.07
2019-06-10T12:02:13.307Z,99684.19
2019-06-10T12:06:25.458Z,99647.20
2019-06-10T12:15:22.735Z,99637.70
2019-06-10T12:19:45.928Z,99631.53
2019-06-10T12:24:02.379Z,99650.75
2019-06-10T12:29:04.683Z,99637.63
2019-06-10T12:33:07.661Z,99661.42
2019-06-10T12:37:17.587Z,99680.13
2019-06-10T12:41:27.568Z,99663.31
2019-06-10T12:45:43.272Z,99672.53
2019-06-10T12:49:56.179Z,99675.63
2019-06-10T12:54:06.245Z,99673.11
2019-06-10T12:58:12.586Z,99662.48
2019-06-10T13:02:24.624Z,99659.44
2019-06-10T13:06:28.553Z,99652.69
2019-06-10T13:10:42.999Z,99634.52
2019-06-10T13:14:51.939Z,99613.96
2019-06-10T13:18:58.265Z,99602.88
2019-06-10T13:23:19.503Z,99617.97
2019-06-10T13:27:13.825Z,99612.72
2019-06-10T13:31:23.553Z,99609.97
2019-06-10T13:35:31.677Z,99601.47
2019-06-10T13:39:38.736Z,99623.42
2019-06-10T13:43:45.634Z,99626.75
2019-06-10T13:47:53.380Z,99649.94
2019-06-10T13:52:04.751Z,99659.40
2019-06-10T13:56:34.795Z,99682.03
2019-06-10T14:00:19.478Z,99679.10
2019-06-10T14:04:26.560Z,99679.10
2019-06-10T14:08:33.631Z,99670.84
2019-06-10T14:12:43.256Z,99665.67
2019-06-10T14:16:53.942Z,99640.27
2019-06-10T14:21:04.934Z,99653.17
2019-06-10T14:25:32.958Z,99644.74
2019-06-10T14:29:42.915Z,99634.61
2019-06-10T14:33:49.920Z,99611.77
2019-06-10T14:37:57.209Z,99609.07
2019-06-10T14:42:05.640Z,99610.47
2019-06-10T14:46:15.541Z,99600.88
2019-06-10T14:50:23.165Z,99565.09
2019-06-10T14:54:32.263Z,99546.80
2019-06-10T14:58:46.742Z,99506.54
2019-06-10T15:02:54.060Z,99527.95
2019-06-10T15:11:58.525Z,99582.41
2019-06-10T15:16:04.281Z,99590.70
2019-06-10T15:20:27.049Z,99590.31
2019-06-10T15:24:48.521Z,99600.37
2019-06-10T15:28:55.580Z,99601.47
2019-06-10T15:33:03.087Z,99593.95
2019-06-10T15:37:18.555Z,99590.77
2019-06-10T15:42:19.773Z,99584.21
2019-06-10T15:46:58.914Z,99586.66
2019-06-10T15:51:52.873Z,99586.78
2019-06-10T15:56:09.145Z,99589.48
2019-06-10T16:00:29.631Z,99584.59
2019-06-10T16:04:45.496Z,99594.46
2019-06-10T16:08:52.362Z,99585.23
2019-06-10T16:12:59.464Z,99568.97
2019-06-10T16:17:06.254Z,99589.66
2019-06-10T16:21:23.715Z,99591.22
2019-06-10T16:25:30.935Z,99589.86
2019-06-10T16:29:37.687Z,99591.25
2019-06-10T16:33:49.263Z,99592.31
2019-06-10T16:37:57.175Z,99592.84
2019-06-10T16:42:04.267Z,99589.41
2019-06-10T16:46:11.228Z,99601.66
2019-06-10T16:50:19.443Z,99608.00
2019-06-10T16:54:27.112Z,99595.25
2019-06-10T16:58:35.443Z,99598.09
2019-06-10T17:02:42.778Z,99593.89
2019-06-10T17:06:56.370Z,99593.03
2019-06-10T17:11:34.979Z,99590.59
2019-06-10T17:15:46.481Z,99604.41
2019-06-10T17:19:55.079Z,99599.71
2019-06-10T17:24:06.091Z,99585.21
2019-06-10T17:28:18.185Z,99575.67
2019-06-10T17:32:28.410Z,99580.27
2019-06-10T17:36:42.666Z,99577.18
2019-06-10T17:40:52.172Z,99593.62
2019-06-10T17:44:59.126Z,99594.40
2019-06-10T17:49:08.694Z,99604.70
2019-06-10T17:53:19.680Z,99587.44
2019-06-10T17:57:30.041Z,99586.96
2019-06-10T18:01:54.282Z,99586.20
2019-06-10T18:05:53.397Z,99604.20
2019-06-10T18:10:05.030Z,99606.90
2019-06-10T18:14:15.624Z,99619.31
2019-06-10T18:18:24.255Z,99621.71
2019-06-10T18:22:34.023Z,99612.33
2019-06-10T18:26:44.943Z,99620.38
2019-06-10T18:30:53.379Z,99615.54
2019-06-10T18:35:02.854Z,99611.56
2019-06-10T18:39:12.342Z,99607.52
2019-06-10T18:43:19.443Z,99612.89
2019-06-10T18:47:36.097Z,99606.95
2019-06-10T18:51:43.795Z,99603.77
2019-06-10T18:55:55.070Z,99588.15
2019-06-10T19:00:07.081Z,99580.89
2019-06-10T19:04:09.821Z,99569.59
2019-06-10T19:08:17.001Z,99558.56
2019-06-10T19:12:26.435Z,99565.55
2019-06-10T19:16:42.793Z,99562.91
2019-06-10T19:20:53.387Z,99540.33
2019-06-10T19:26:22.089Z,99552.15
2019-06-10T19:30:38.561Z,99552.68
2019-06-10T19:34:53.539Z,99569.91
2019-06-10T19:39:02.467Z,99574.47
2019-06-10T19:43:13.596Z,99562.39
2019-06-10T19:47:23.496Z,99551.64
2019-06-10T19:51:32.915Z,99555.12
2019-06-10T19:55:44.414Z,99541.42
2019-06-10T20:00:07.399Z,99562.39
2019-06-10T20:04:04.661Z,99562.92
2019-06-10T20:08:15.873Z,99559.42
2019-06-10T20:12:22.974Z,99567.77
2019-06-10T20:16:32.702Z,99571.25
2019-06-10T20:20:47.032Z,99550.31
2019-06-10T20:24:58.377Z,99540.91
2019-06-10T20:29:06.091Z,99532.84
2019-06-10T20:33:36.436Z,99538.77
2019-06-10T20:37:43.979Z,99527.45
2019-06-10T20:41:55.569Z,99536.59
2019-06-10T20:46:05.877Z,99525.31
2019-06-10T20:50:16.136Z,99520.97
2019-06-10T20:54:24.200Z,99516.72
2019-06-10T20:58:33.092Z,99517.75
2019-06-10T21:02:41.632Z,99507.80
2019-06-10T21:06:53.013Z,99497.87
2019-06-10T21:11:02.662Z,99495.17
2019-06-10T21:15:12.447Z,99494.09
2019-06-10T21:19:19.212Z,99469.92
2019-06-10T21:23:26.077Z,99468.31
2019-06-10T21:27:32.966Z,99457.59
2019-06-10T21:31:41.062Z,99446.86
2019-06-10T21:35:49.073Z,99450.09
2019-06-10T21:39:57.007Z,99441.19
2019-06-10T21:44:03.897Z,99448.20
2019-06-10T21:48:12.396Z,99453.02
2019-06-10T21:52:19.319Z,99470.98
2019-06-10T21:56:27.097Z,99496.50
2019-06-10T22:00:53.921Z,99517.63
2019-06-10T22:04:54.150Z,99513.03
2019-06-10T22:09:03.730Z,99535.87
2019-06-10T22:13:12.388Z,99528.08
2019-06-10T22:17:18.967Z,99534.48
2019-06-10T22:21:25.863Z,99542.29
2019-06-10T22:25:33.752Z,99545.45
2019-06-10T22:29:42.708Z,99522.42
2019-06-10T22:33:49.488Z,99526.34
2019-06-10T22:37:56.646Z,99519.70
2019-06-10T22:42:03.442Z,99523.91
2019-06-10T22:46:10.156Z,99509.46
2019-06-10T22:50:17.051Z,99528.81
2019-06-10T22:54:23.790Z,99536.05
2019-06-10T22:58:30.769Z,99533.31
2019-06-10T23:02:37.458Z,99529.30
2019-06-10T23:06:44.349Z,99529.32
2019-06-10T23:10:53.247Z,99525.59
2019-06-10T23:14:59.468Z,99534.63
2019-06-10T23:19:06.426Z,99554.49
2019-06-10T23:23:13.248Z,99548.00
2019-06-10T23:27:22.182Z,99550.50
2019-06-10T23:31:28.474Z,99550.47
2019-06-10T23:35:35.240Z,99541.56
2019-06-10T23:39:42.607Z,99543.17
2019-06-10T23:43:50.931Z,99538.65
2019-06-10T23:47:59.225Z,99539.98
2019-06-10T23:52:06.443Z,99534.77
2019-06-10T23:56:13.175Z,99542.13
